createdAt,value
2023-02-19T00:03:14.414Z,4.36
2023-02-19T00:08:16.121Z,4.33
2023-02-19T00:13:18.955Z,4.32
2023-02-19T00:18:23.993Z,4.34
2023-02-19T00:23:29.248Z,4.30
2023-02-19T00:28:38.284Z,4.30
2023-02-19T00:33:41.540Z,4.31
2023-02-19T00:38:48.037Z,4.28
2023-02-19T00:43:55.132Z,4.25
2023-02-19T00:49:00.011Z,4.23
2023-02-19T00:54:04.676Z,4.23
2023-02-19T00:59:08.851Z,4.22
2023-02-19T01:04:10.884Z,4.20
2023-02-19T01:09:13.610Z,4.20
2023-02-19T01:14:16.180Z,4.20
2023-02-19T01:19:17.936Z,4.18
2023-02-19T01:24:21.871Z,4.19
2023-02-19T01:29:23.577Z,4.16
2023-02-19T01:34:33.240Z,4.17
2023-02-19T01:39:39.095Z,4.14
2023-02-19T01:44:40.760Z,4.12
2023-02-19T01:49:53.773Z,4.11
2023-02-19T01:54:59.724Z,4.11
2023-02-19T02:00:13.450Z,4.12
2023-02-19T02:05:30.796Z,4.13
2023-02-19T02:10:34.705Z,4.09
2023-02-19T02:15:50.846Z,4.05
2023-02-19T02:21:05.760Z,4.01
2023-02-19T02:26:28.828Z,3.98
2023-02-19T02:31:39.949Z,3.96
2023-02-19T02:36:44.901Z,3.97
2023-02-19T02:42:17.925Z,3.99
2023-02-19T02:47:41.851Z,3.97
2023-02-19T02:53:05.426Z,3.94
2023-02-19T02:58:10.843Z,3.94
2023-02-19T03:03:14.352Z,3.90
2023-02-19T03:08:19.933Z,3.85
2023-02-19T03:13:53.881Z,3.80
2023-02-19T03:19:17.073Z,3.77
2023-02-19T03:24:49.082Z,3.75
2023-02-19T03:29:52.375Z,3.70
2023-02-19T03:34:57.135Z,3.66
2023-02-19T03:39:59.444Z,3.63
2023-02-19T03:45:25.551Z,3.60
2023-02-19T03:50:52.483Z,3.59
2023-02-19T03:56:14.179Z,3.60
2023-02-19T04:01:29.733Z,3.62
2023-02-19T04:06:32.204Z,3.63
2023-02-19T04:11:34.172Z,3.59
2023-02-19T04:16:44.719Z,3.58
2023-02-19T04:21:50.392Z,3.59
2023-02-19T04:26:56.285Z,3.55
2023-02-19T04:31:58.470Z,3.53
2023-02-19T04:37:04.797Z,3.45
2023-02-19T04:42:06.508Z,3.44
2023-02-19T04:47:10.782Z,3.40
2023-02-19T04:52:14.914Z,3.35
2023-02-19T04:57:26.200Z,3.30
2023-02-19T05:02:31.168Z,3.29
2023-02-19T05:07:33.692Z,3.34
2023-02-19T05:12:35.398Z,3.43
2023-02-19T05:17:41.796Z,3.47
2023-02-19T05:22:46.006Z,3.53
2023-02-19T05:27:49.946Z,3.54
2023-02-19T05:32:51.666Z,3.58
2023-02-19T05:37:53.566Z,3.64
2023-02-19T05:42:55.288Z,3.68
2023-02-19T05:47:57.705Z,3.71
2023-02-19T05:53:04.108Z,3.73
2023-02-19T05:58:05.856Z,3.66
2023-02-19T06:03:07.521Z,3.64
2023-02-19T06:08:13.919Z,3.58
2023-02-19T06:13:23.040Z,3.47
2023-02-19T06:18:25.830Z,3.39
2023-02-19T06:23:28.776Z,3.34
2023-02-19T06:28:32.724Z,3.29
2023-02-19T06:33:35.120Z,3.33
2023-02-19T06:38:36.829Z,3.33
2023-02-19T06:43:38.751Z,3.34
2023-02-19T06:48:44.163Z,3.37
2023-02-19T06:53:46.867Z,3.74
2023-02-19T06:58:54.656Z,3.62
2023-02-19T07:03:58.700Z,3.55
2023-02-19T07:09:01.008Z,3.52
2023-02-19T07:14:08.888Z,3.45
2023-02-19T07:19:15.459Z,3.37
2023-02-19T07:24:17.192Z,3.18
2023-02-19T07:29:18.884Z,2.98
2023-02-19T07:34:20.949Z,2.89
2023-02-19T07:39:22.597Z,2.86
2023-02-19T07:44:24.281Z,2.89
2023-02-19T07:49:31.262Z,2.94
2023-02-19T07:54:37.704Z,3.00
2023-02-19T07:59:42.520Z,3.06
2023-02-19T08:04:48.744Z,3.13
2023-02-19T08:10:13.262Z,3.21
2023-02-19T08:15:18.088Z,3.35
2023-02-19T08:20:30.022Z,3.46
2023-02-19T08:25:31.725Z,3.65
2023-02-19T08:30:40.188Z,3.80
2023-02-19T08:35:43.026Z,3.86
2023-02-19T08:40:44.768Z,3.96
2023-02-19T08:45:47.684Z,4.07
2023-02-19T08:51:03.771Z,4.15
2023-02-19T08:56:13.637Z,4.28
2023-02-19T09:01:19.072Z,4.37
2023-02-19T09:06:23.627Z,4.51
2023-02-19T09:11:28.699Z,4.62
2023-02-19T09:16:34.169Z,4.73
2023-02-19T09:21:38.966Z,4.89
2023-02-19T09:26:40.805Z,5.03
2023-02-19T09:31:48.164Z,5.15
2023-02-19T09:36:53.231Z,5.30
2023-02-19T09:41:56.116Z,5.57
2023-02-19T09:46:59.012Z,6.05
2023-02-19T09:52:07.697Z,6.33
2023-02-19T09:57:20.718Z,6.07
2023-02-19T10:02:27.712Z,5.95
2023-02-19T10:07:41.957Z,6.24
2023-02-19T10:12:50.710Z,6.72
2023-02-19T10:17:55.304Z,7.00
2023-02-19T10:23:07.767Z,7.06
2023-02-19T10:28:18.202Z,7.10
2023-02-19T10:33:20.638Z,7.59
2023-02-19T10:38:26.127Z,7.96
2023-02-19T10:43:40.009Z,8.27
2023-02-19T10:48:50.116Z,7.69
2023-02-19T10:54:09.828Z,7.25
2023-02-19T10:59:25.736Z,7.13
2023-02-19T11:04:35.219Z,7.66
2023-02-19T11:09:47.506Z,7.79
2023-02-19T11:14:51.824Z,8.35
2023-02-19T11:20:02.009Z,8.61
2023-02-19T11:25:17.976Z,8.30
2023-02-19T11:30:35.637Z,7.91
2023-02-19T11:35:37.950Z,8.17
2023-02-19T11:41:04.411Z,8.75
2023-02-19T11:46:44.101Z,8.74
2023-02-19T11:51:57.764Z,7.82
2023-02-19T11:57:28.887Z,7.37
2023-02-19T12:02:42.227Z,8.30
2023-02-19T12:08:05.634Z,9.32
2023-02-19T12:13:39.299Z,10.70
2023-02-19T12:18:53.427Z,11.31
2023-02-19T12:24:22.753Z,11.63
2023-02-19T12:29:34.309Z,12.42
2023-02-19T12:34:50.702Z,12.86
2023-02-19T12:40:17.348Z,12.55
2023-02-19T12:45:37.922Z,13.39
2023-02-19T12:50:45.529Z,13.34
2023-02-19T12:55:48.322Z,13.32
2023-02-19T13:00:53.980Z,13.34
2023-02-19T13:05:59.298Z,13.01
2023-02-19T13:11:09.397Z,12.54
2023-02-19T13:16:19.043Z,12.57
2023-02-19T13:21:44.479Z,12.76
2023-02-19T13:27:04.709Z,12.92
2023-02-19T13:32:42.746Z,12.70
2023-02-19T13:37:45.033Z,12.60
2023-02-19T13:43:02.333Z,12.31
2023-02-19T13:48:23.533Z,12.33
2023-02-19T13:53:51.882Z,12.12
2023-02-19T13:59:11.281Z,12.64
2023-02-19T14:04:23.206Z,12.64
2023-02-19T14:09:43.929Z,12.86
2023-02-19T14:14:54.068Z,13.15
2023-02-19T14:19:57.038Z,13.31
2023-02-19T14:25:00.569Z,13.38
2023-02-19T14:30:02.833Z,13.69
2023-02-19T14:35:16.619Z,13.95
2023-02-19T14:40:34.657Z,13.28
2023-02-19T14:45:42.389Z,13.32
2023-02-19T14:50:49.258Z,13.29
2023-02-19T14:55:54.571Z,11.97
2023-02-19T15:00:59.548Z,11.23
2023-02-19T15:06:07.994Z,10.54
2023-02-19T15:11:17.247Z,10.52
2023-02-19T15:16:21.489Z,10.58
2023-02-19T15:21:35.703Z,10.38
2023-02-19T15:26:46.779Z,9.69
2023-02-19T15:31:53.866Z,9.54
2023-02-19T15:37:05.039Z,9.39
2023-02-19T15:42:15.452Z,9.10
2023-02-19T15:47:29.783Z,8.99
2023-02-19T15:52:50.505Z,8.69
2023-02-19T15:58:09.801Z,8.58
2023-02-19T16:03:25.602Z,8.38
2023-02-19T16:08:39.650Z,8.10
2023-02-19T16:13:45.571Z,7.87
2023-02-19T16:18:51.560Z,7.79
2023-02-19T16:24:16.335Z,7.58
2023-02-19T16:29:24.183Z,7.37
2023-02-19T16:34:34.345Z,7.15
2023-02-19T16:39:38.404Z,7.31
2023-02-19T16:44:40.368Z,6.89
2023-02-19T16:49:48.389Z,6.62
2023-02-19T16:54:50.179Z,6.42
2023-02-19T16:59:58.365Z,6.24
2023-02-19T17:05:00.703Z,6.15
2023-02-19T17:10:03.107Z,6.05
2023-02-19T17:15:05.096Z,6.02
2023-02-19T17:20:17.011Z,5.98
2023-02-19T17:25:21.137Z,5.93
2023-02-19T17:30:28.969Z,5.92
2023-02-19T17:35:30.782Z,5.89
2023-02-19T17:40:33.855Z,5.91
2023-02-19T17:45:38.534Z,5.91
2023-02-19T17:50:40.536Z,5.90
2023-02-19T17:55:50.334Z,5.85
2023-02-19T18:00:53.006Z,5.83
2023-02-19T18:05:57.241Z,5.80
2023-02-19T18:11:00.945Z,5.74
2023-02-19T18:16:04.982Z,5.70
2023-02-19T18:21:13.630Z,5.70
2023-02-19T18:26:25.879Z,5.72
2023-02-19T18:31:32.783Z,5.63
2023-02-19T18:36:37.335Z,5.54
2023-02-19T18:41:39.383Z,5.45
2023-02-19T18:46:45.847Z,5.41
2023-02-19T18:51:49.889Z,5.33
2023-02-19T18:56:54.310Z,5.24
2023-02-19T19:01:59.518Z,5.15
2023-02-19T19:07:01.347Z,5.01
2023-02-19T19:12:05.814Z,4.92
2023-02-19T19:17:09.952Z,4.91
2023-02-19T19:22:15.216Z,4.90
2023-02-19T19:27:21.749Z,4.88
2023-02-19T19:32:23.758Z,4.85
2023-02-19T19:37:29.497Z,4.86
2023-02-19T19:42:31.320Z,4.86
2023-02-19T19:47:35.181Z,4.88
2023-02-19T19:52:39.446Z,4.89
2023-02-19T19:57:43.947Z,4.86
2023-02-19T20:02:48.986Z,4.83
2023-02-19T20:07:53.464Z,4.76
2023-02-19T20:12:55.110Z,4.65
2023-02-19T20:18:02.017Z,4.53
2023-02-19T20:23:07.018Z,4.40
2023-02-19T20:28:08.797Z,4.33
2023-02-19T20:33:15.026Z,4.34
2023-02-19T20:38:17.121Z,4.30
2023-02-19T20:43:19.129Z,4.30
2023-02-19T20:48:20.826Z,4.32
2023-02-19T20:53:22.730Z,4.39
2023-02-19T20:58:24.818Z,4.44
2023-02-19T21:03:31.305Z,4.50
2023-02-19T21:08:36.407Z,4.53
2023-02-19T21:13:44.973Z,4.70
2023-02-19T21:18:46.834Z,4.78
2023-02-19T21:23:57.497Z,4.70
2023-02-19T21:29:01.391Z,4.64
2023-02-19T21:34:11.114Z,4.62
2023-02-19T21:39:17.063Z,4.64
2023-02-19T21:44:26.483Z,4.63
2023-02-19T21:49:30.575Z,4.64
2023-02-19T21:54:32.325Z,4.64
2023-02-19T21:59:39.108Z,4.65
2023-02-19T22:04:41.228Z,4.65
2023-02-19T22:09:42.883Z,4.65
2023-02-19T22:14:45.342Z,4.67
2023-02-19T22:19:47.755Z,4.67
2023-02-19T22:24:51.717Z,4.70
2023-02-19T22:29:53.674Z,4.68
2023-02-19T22:34:57.590Z,4.68
2023-02-19T22:40:03.347Z,4.71
2023-02-19T22:45:06.120Z,4.71
2023-02-19T22:50:09.056Z,4.70
2023-02-19T22:55:15.266Z,4.70
2023-02-19T23:00:21.041Z,4.71
2023-02-19T23:05:24.526Z,4.71
2023-02-19T23:10:27.056Z,4.73
2023-02-19T23:15:31.081Z,4.75
2023-02-19T23:20:35.238Z,4.78
2023-02-19T23:25:36.940Z,4.80
2023-02-19T23:30:38.720Z,4.83
2023-02-19T23:35:42.801Z,4.85
2023-02-19T23:40:45.348Z,4.88
2023-02-19T23:45:49.987Z,4.93
2023-02-19T23:50:56.962Z,4.93
2023-02-19T23:56:02.636Z,4.91
